createdAt,value
2019-05-05T01:42:24.830Z,2.20
2019-05-05T01:44:59.843Z,2.20
2019-05-05T01:47:41.561Z,2.20
2019-05-05T01:50:20.872Z,2.10
2019-05-05T01:52:59.671Z,2.10
2019-05-05T01:55:45.547Z,2.10
2019-05-05T03:36:30.744Z,1.70
2019-05-05T03:39:23.963Z,1.70
2019-05-05T05:11:27.994Z,3.70
2019-05-05T05:41:54.082Z,4.70
2019-05-05T05:44:33.784Z,4.80
2019-05-05T05:47:14.057Z,4.90
2019-05-05T05:53:08.420Z,5.10
2019-05-05T06:19:03.830Z,6.20
2019-05-05T06:21:39.389Z,6.30
2019-05-05T06:24:16.539Z,6.40
2019-05-05T06:26:51.834Z,6.40
2019-05-05T06:29:34.502Z,6.50
2019-05-05T06:32:08.149Z,6.50
2019-05-05T06:35:03.676Z,6.50
2019-05-05T06:37:56.668Z,6.60
2019-05-05T06:40:39.250Z,6.70
2019-05-05T06:43:15.948Z,6.80
2019-05-05T06:46:05.800Z,7.00
2019-05-05T06:48:38.798Z,7.10
2019-05-05T06:51:14.065Z,7.40
2019-05-05T06:53:45.073Z,7.80
2019-05-05T06:56:23.776Z,8.60
2019-05-05T06:59:08.162Z,9.50
2019-05-05T07:02:06.263Z,10.30
2019-05-05T07:04:47.329Z,11.20
2019-05-05T07:10:29.950Z,12.90
2019-05-05T07:13:04.995Z,13.70
2019-05-05T07:15:44.400Z,14.00
2019-05-05T07:18:19.160Z,14.20
2019-05-05T07:20:54.436Z,14.70
2019-05-05T07:23:34.131Z,15.30
2019-05-05T07:30:44.169Z,16.10
2019-05-05T07:31:47.064Z,16.50
2019-05-05T07:34:33.485Z,16.70
2019-05-05T07:37:05.649Z,16.80
2019-05-05T07:39:40.375Z,16.80
2019-05-05T08:24:25.810Z,19.30
2019-05-05T08:27:07.394Z,19.50
2019-05-05T08:32:47.613Z,19.10
2019-05-05T08:44:19.254Z,18.10
2019-05-05T08:46:53.946Z,18.60
2019-05-05T09:01:54.059Z,17.20
2019-05-05T09:07:30.316Z,16.40
2019-05-05T09:10:15.464Z,16.00
2019-05-05T09:12:54.271Z,15.60
2019-05-05T09:18:37.930Z,15.70
2019-05-05T09:21:23.922Z,16.30
2019-05-05T09:24:02.381Z,17.00
2019-05-05T09:29:50.297Z,17.90
2019-05-05T09:32:47.523Z,18.30
2019-05-05T09:35:21.483Z,18.30
2019-05-05T09:38:01.535Z,17.60
2019-05-05T09:41:14.354Z,16.90
2019-05-05T09:44:38.611Z,16.30
2019-05-05T09:46:55.103Z,15.80
2019-05-05T09:55:25.089Z,15.50
2019-05-05T09:58:04.471Z,16.30
2019-05-05T10:00:47.769Z,16.80
2019-05-05T10:03:35.755Z,16.90
2019-05-05T10:06:16.563Z,17.00
2019-05-05T10:08:49.653Z,17.20
2019-05-05T10:11:28.643Z,17.00
2019-05-05T10:14:07.043Z,16.80
2019-05-05T10:16:36.957Z,17.00
2019-05-05T10:19:13.894Z,17.40
2019-05-05T10:21:56.757Z,17.80
2019-05-05T10:24:44.323Z,17.90
2019-05-05T10:27:18.257Z,17.80
2019-05-05T10:29:51.845Z,18.00
2019-05-05T10:32:28.103Z,17.80
2019-05-05T10:35:04.425Z,17.40
2019-05-05T10:37:38.535Z,16.90
2019-05-05T10:40:14.385Z,16.40
2019-05-05T10:42:50.026Z,15.90
2019-05-05T10:45:27.895Z,15.40
2019-05-05T10:48:01.021Z,15.00
2019-05-05T10:50:34.065Z,14.70
2019-05-05T10:53:07.050Z,14.60
2019-05-05T10:55:45.730Z,14.30
2019-05-05T10:58:27.136Z,14.10
2019-05-05T11:00:59.484Z,13.90
2019-05-05T11:03:46.865Z,13.70
2019-05-05T11:06:31.246Z,13.50
2019-05-05T11:09:04.314Z,13.40
2019-05-05T11:11:35.492Z,13.30
2019-05-05T11:14:29.395Z,13.10
2019-05-05T11:17:00.903Z,13.00
2019-05-05T11:19:50.273Z,13.00
2019-05-05T11:28:33.904Z,14.40
2019-05-05T11:31:04.774Z,15.80
2019-05-05T11:33:36.224Z,16.40
2019-05-05T11:36:08.114Z,16.60
2019-05-05T11:38:41.463Z,16.50
2019-05-05T11:41:10.475Z,16.20
2019-05-05T11:43:40.335Z,15.90
2019-05-05T11:46:11.338Z,15.50
2019-05-05T11:48:43.893Z,15.10
2019-05-05T11:51:15.221Z,14.80
2019-05-05T11:54:01.430Z,14.50
2019-05-05T11:56:33.967Z,14.30
2019-05-05T11:59:14.332Z,14.20
2019-05-05T12:02:03.778Z,14.10
2019-05-05T12:04:40.528Z,14.30
2019-05-05T12:07:11.850Z,14.40
2019-05-05T12:10:05.624Z,14.60
2019-05-05T12:12:44.198Z,14.80
2019-05-05T12:15:18.448Z,15.10
2019-05-05T12:17:51.402Z,15.10
2019-05-05T12:20:45.150Z,15.20
2019-05-05T12:23:25.224Z,15.70
2019-05-05T12:26:04.659Z,16.00
2019-05-05T12:28:54.570Z,16.80
2019-05-05T12:34:39.354Z,18.60
2019-05-05T17:38:20.411Z,10.30
2019-05-05T17:59:10.016Z,9.20
2019-05-05T18:01:49.818Z,9.00
2019-05-05T18:16:45.856Z,8.20
2019-05-05T18:31:46.100Z,7.50
2019-05-05T18:37:11.434Z,7.40
2019-05-05T21:09:55.186Z,4.90
2019-05-05T21:54:47.555Z,4.50
2019-05-05T21:57:46.426Z,4.40
2019-05-05T22:03:45.016Z,4.20
2019-05-05T22:09:24.348Z,4.20
2019-05-05T22:24:16.049Z,3.90
